createdAt,value
2018-04-06T00:00:48.122Z,52.42
2018-04-06T00:01:48.118Z,52.13
2018-04-06T00:02:48.121Z,52.13
2018-04-06T00:03:48.105Z,52.13
2018-04-06T00:04:48.095Z,51.94
2018-04-06T00:05:48.093Z,51.94
2018-04-06T00:06:48.083Z,52.13
2018-04-06T00:07:48.080Z,52.23
2018-04-06T00:08:48.068Z,52.13
2018-04-06T00:09:48.067Z,52.04
2018-04-06T00:10:48.060Z,52.23
2018-04-06T00:11:48.050Z,52.23
2018-04-06T00:12:48.045Z,52.23
2018-04-06T00:13:48.039Z,52.04
2018-04-06T00:14:48.033Z,52.42
2018-04-06T00:15:48.026Z,52.42
2018-04-06T00:16:48.067Z,52.13
2018-04-06T00:17:48.018Z,52.52
2018-04-06T00:18:48.006Z,52.42
2018-04-06T00:19:48.001Z,51.94
2018-04-06T00:20:48.018Z,52.42
2018-04-06T00:21:47.997Z,52.42
2018-04-06T00:22:47.994Z,52.52
2018-04-06T00:23:47.975Z,52.42
2018-04-06T00:24:47.966Z,52.33
2018-04-06T00:25:47.962Z,52.04
2018-04-06T00:26:47.955Z,52.42
2018-04-06T00:27:47.958Z,52.42
2018-04-06T00:28:47.945Z,52.13
2018-04-06T00:29:47.936Z,52.42
2018-04-06T00:30:47.954Z,51.94
2018-04-06T00:31:47.921Z,52.13
2018-04-06T00:32:47.918Z,52.04
2018-04-06T00:33:47.908Z,52.33
2018-04-06T00:34:47.907Z,52.23
2018-04-06T00:35:47.897Z,52.23
2018-04-06T00:36:47.886Z,52.13
2018-04-06T00:37:47.888Z,52.23
2018-04-06T00:38:47.876Z,52.23
2018-04-06T00:39:47.873Z,52.23
2018-04-06T00:40:47.868Z,52.23
2018-04-06T00:41:47.856Z,52.23
2018-04-06T00:42:47.854Z,51.94
2018-04-06T00:43:47.847Z,52.23
2018-04-06T00:44:47.848Z,52.13
2018-04-06T00:45:47.836Z,52.42
2018-04-06T00:46:47.825Z,52.04
2018-04-06T00:47:47.820Z,52.04
2018-04-06T00:48:47.814Z,52.04
2018-04-06T00:49:47.807Z,52.13
2018-04-06T00:50:47.803Z,52.42
2018-04-06T00:51:47.799Z,52.42
2018-04-06T00:52:47.788Z,52.42
2018-04-06T00:53:47.777Z,52.42
2018-04-06T00:54:47.775Z,52.61
2018-04-06T00:55:47.770Z,52.52
2018-04-06T00:56:47.760Z,52.42
2018-04-06T00:57:47.756Z,52.42
2018-04-06T00:58:47.752Z,52.71
2018-04-06T00:59:47.746Z,52.71
2018-04-06T01:00:47.742Z,52.71
2018-04-06T01:01:47.735Z,52.52
2018-04-06T01:02:47.724Z,52.42
2018-04-06T01:03:47.715Z,52.52
2018-04-06T01:04:47.712Z,52.71
2018-04-06T01:05:47.705Z,52.71
2018-04-06T01:06:47.698Z,52.71
2018-04-06T01:07:47.694Z,52.91
2018-04-06T01:08:47.691Z,52.61
2018-04-06T01:09:47.681Z,52.61
2018-04-06T01:10:47.673Z,52.52
2018-04-06T01:11:47.665Z,52.52
2018-04-06T01:12:47.663Z,52.61
2018-04-06T01:13:47.653Z,52.61
2018-04-06T01:14:47.652Z,52.61
2018-04-06T01:15:47.645Z,52.33
2018-04-06T01:16:47.640Z,52.52
2018-04-06T01:17:47.629Z,52.52
2018-04-06T01:18:47.622Z,52.33
2018-04-06T01:19:47.614Z,52.33
2018-04-06T01:20:47.605Z,52.71
2018-04-06T01:21:47.604Z,52.42
2018-04-06T01:22:47.603Z,52.52
2018-04-06T01:23:47.595Z,52.42
2018-04-06T01:24:47.582Z,52.61
2018-04-06T01:25:47.600Z,52.33
2018-04-06T01:26:47.576Z,52.33
2018-04-06T01:27:47.562Z,52.61
2018-04-06T01:28:47.555Z,52.52
2018-04-06T01:29:47.551Z,52.33
2018-04-06T01:30:47.551Z,52.61
2018-04-06T01:31:47.547Z,52.61
2018-04-06T01:32:47.532Z,52.42
2018-04-06T01:33:47.524Z,52.33
2018-04-06T01:34:47.527Z,52.52
2018-04-06T01:35:47.515Z,52.61
2018-04-06T01:36:47.506Z,52.52
2018-04-06T01:37:47.502Z,52.61
2018-04-06T01:38:47.508Z,52.33
2018-04-06T01:39:47.487Z,52.61
2018-04-06T01:40:47.480Z,52.61
2018-04-06T01:41:47.474Z,52.52
2018-04-06T01:42:47.468Z,52.61
2018-04-06T01:43:47.462Z,52.52
2018-04-06T01:44:47.459Z,52.33
2018-04-06T01:45:47.485Z,52.33
2018-04-06T01:46:47.468Z,52.42
2018-04-06T01:47:47.436Z,52.52
2018-04-06T01:48:47.431Z,52.42
2018-04-06T01:49:47.421Z,52.52
2018-04-06T01:50:47.422Z,52.52
2018-04-06T01:51:47.411Z,52.33
2018-04-06T01:52:47.408Z,52.33
2018-04-06T01:53:47.408Z,52.61
2018-04-06T01:54:47.393Z,52.81
2018-04-06T01:55:47.389Z,52.71
2018-04-06T01:56:47.379Z,52.61
2018-04-06T01:57:47.374Z,52.33
2018-04-06T01:58:47.371Z,52.61
2018-04-06T01:59:47.357Z,52.81
2018-04-06T02:00:47.356Z,52.52
2018-04-06T02:01:47.348Z,52.61
2018-04-06T02:02:47.338Z,52.61
2018-04-06T02:03:47.331Z,52.52
2018-04-06T02:04:47.323Z,52.71
2018-04-06T02:05:47.335Z,52.61
2018-04-06T02:06:47.323Z,52.81
2018-04-06T02:07:47.312Z,52.52
2018-04-06T02:08:47.303Z,52.42
2018-04-06T02:09:47.297Z,52.81
2018-04-06T02:10:47.288Z,52.81
2018-04-06T02:11:47.283Z,52.61
2018-04-06T02:12:47.275Z,52.81
2018-04-06T02:13:47.272Z,52.52
2018-04-06T02:14:47.263Z,52.71
2018-04-06T02:15:47.262Z,52.61
2018-04-06T02:16:47.253Z,52.61
2018-04-06T02:17:47.249Z,52.52
2018-04-06T02:18:47.239Z,52.61
2018-04-06T02:19:47.237Z,52.61
2018-04-06T02:20:47.227Z,52.33
2018-04-06T02:21:47.215Z,52.42
2018-04-06T02:22:47.214Z,52.81
2018-04-06T02:23:47.205Z,52.81
2018-04-06T02:24:47.215Z,52.81
2018-04-06T02:25:47.193Z,53.09
2018-04-06T02:26:47.185Z,53.29
2018-04-06T02:27:47.183Z,53.19
2018-04-06T02:28:47.175Z,53.09
2018-04-06T02:29:47.168Z,53.29
2018-04-06T02:30:47.166Z,53.29
2018-04-06T02:31:47.155Z,53.00
2018-04-06T02:32:47.151Z,53.00
2018-04-06T02:33:47.136Z,52.91
2018-04-06T02:34:47.136Z,53.00
2018-04-06T02:35:47.131Z,53.09
2018-04-06T02:36:47.162Z,53.19
2018-04-06T02:37:47.116Z,53.19
2018-04-06T02:38:47.114Z,53.00
2018-04-06T02:39:47.107Z,53.19
2018-04-06T02:40:47.096Z,53.19
2018-04-06T02:41:47.097Z,53.00
2018-04-06T02:42:47.097Z,53.00
2018-04-06T02:43:47.080Z,53.00
2018-04-06T02:44:47.074Z,53.19
2018-04-06T02:45:47.071Z,53.19
2018-04-06T02:46:47.062Z,53.09
2018-04-06T02:47:47.055Z,53.00
2018-04-06T02:48:47.040Z,53.00
2018-04-06T02:49:47.040Z,53.00
2018-04-06T02:50:47.039Z,52.91
2018-04-06T02:51:47.024Z,53.09
2018-04-06T02:52:47.018Z,52.91
2018-04-06T02:53:47.012Z,52.91
2018-04-06T02:54:47.013Z,52.91
2018-04-06T02:55:47.001Z,53.09
2018-04-06T02:56:46.997Z,52.61
2018-04-06T02:57:46.996Z,52.61
2018-04-06T02:58:46.985Z,53.09
2018-04-06T02:59:46.975Z,53.19
2018-04-06T03:00:46.973Z,52.81
2018-04-06T03:01:46.965Z,53.00
2018-04-06T03:02:46.953Z,53.19
2018-04-06T03:03:46.950Z,53.00
2018-04-06T03:04:46.948Z,53.00
2018-04-06T03:05:46.936Z,53.09
2018-04-06T03:06:46.932Z,53.00
2018-04-06T03:07:46.924Z,53.09
2018-04-06T03:08:46.922Z,53.00
2018-04-06T03:09:46.928Z,53.00
2018-04-06T03:10:46.909Z,53.00
2018-04-06T03:11:46.900Z,52.71
2018-04-06T03:12:46.890Z,52.81
2018-04-06T03:13:46.888Z,52.81
2018-04-06T03:14:46.880Z,52.91
2018-04-06T03:15:46.869Z,52.81
2018-04-06T03:16:46.868Z,52.81
2018-04-06T03:17:46.860Z,52.61
2018-04-06T03:18:46.853Z,52.81
2018-04-06T03:19:46.850Z,52.91
2018-04-06T03:20:46.839Z,52.81
2018-04-06T03:21:46.835Z,52.61
2018-04-06T03:22:46.828Z,52.81
2018-04-06T03:23:46.818Z,52.81
2018-04-06T03:24:46.822Z,52.81
2018-04-06T03:25:46.812Z,52.71
2018-04-06T03:26:46.807Z,52.81
2018-04-06T03:27:46.795Z,53.19
2018-04-06T03:28:46.791Z,52.81
2018-04-06T03:29:46.781Z,53.19
2018-04-06T03:30:46.777Z,52.81
2018-04-06T03:31:46.774Z,53.00
2018-04-06T03:32:46.770Z,52.81
2018-04-06T03:33:46.758Z,52.91
2018-04-06T03:34:46.751Z,53.29
2018-04-06T03:35:46.744Z,53.19
2018-04-06T03:36:46.740Z,53.39
2018-04-06T03:37:46.732Z,53.39
2018-04-06T03:38:46.726Z,53.48
2018-04-06T03:39:46.725Z,53.58
2018-04-06T03:40:46.716Z,53.67
2018-04-06T03:41:46.715Z,54.06
2018-04-06T03:42:46.703Z,53.87
2018-04-06T03:43:46.689Z,53.87
2018-04-06T03:44:46.686Z,53.96
2018-04-06T03:45:46.680Z,54.16
2018-04-06T03:46:46.674Z,54.06
2018-04-06T03:47:46.674Z,54.06
2018-04-06T03:48:46.660Z,54.16
2018-04-06T03:49:46.653Z,54.74
2018-04-06T03:50:46.649Z,54.93
2018-04-06T03:51:46.647Z,54.83
2018-04-06T03:52:46.634Z,54.83
2018-04-06T03:53:46.627Z,54.16
2018-04-06T03:54:46.632Z,54.16
2018-04-06T03:55:46.615Z,53.87
2018-04-06T03:56:46.609Z,53.48
2018-04-06T03:57:46.600Z,53.58
2018-04-06T03:58:46.589Z,52.81
2018-04-06T03:59:46.584Z,53.09
2018-04-06T04:00:46.583Z,52.61
2018-04-06T04:01:46.567Z,52.42
2018-04-06T04:02:46.564Z,52.42
2018-04-06T04:03:46.552Z,52.13
2018-04-06T04:04:46.548Z,52.13
2018-04-06T04:05:46.538Z,52.23
2018-04-06T04:06:46.529Z,51.65
2018-04-06T04:07:46.521Z,51.75
2018-04-06T04:08:46.515Z,51.56
2018-04-06T04:09:46.507Z,50.78
2018-04-06T04:10:46.505Z,51.26
2018-04-06T04:11:46.494Z,51.26
2018-04-06T04:12:46.485Z,50.88
2018-04-06T04:13:46.475Z,50.88
2018-04-06T04:14:46.502Z,50.88
2018-04-06T04:15:46.485Z,50.49
2018-04-06T04:16:46.471Z,50.40
2018-04-06T04:17:46.443Z,50.30
2018-04-06T04:18:46.438Z,50.40
2018-04-06T04:19:46.432Z,50.59
2018-04-06T04:20:46.420Z,50.21
2018-04-06T04:21:46.415Z,49.73
2018-04-06T04:22:46.406Z,49.82
2018-04-06T04:23:46.397Z,49.75
2018-04-06T04:24:46.390Z,49.75
2018-04-06T04:25:46.381Z,49.84
2018-04-06T04:26:46.374Z,49.75
2018-04-06T04:27:46.366Z,49.84
2018-04-06T04:28:46.357Z,49.84
2018-04-06T04:29:46.351Z,49.55
2018-04-06T04:30:46.340Z,49.37
2018-04-06T04:31:46.337Z,49.46
2018-04-06T04:32:46.325Z,49.37
2018-04-06T04:33:46.318Z,49.27
2018-04-06T04:34:46.310Z,49.17
2018-04-06T04:35:46.303Z,49.27
2018-04-06T04:36:46.295Z,49.55
2018-04-06T04:37:46.285Z,49.46
2018-04-06T04:38:46.277Z,49.07
2018-04-06T04:39:46.282Z,49.07
2018-04-06T04:40:46.269Z,48.97
2018-04-06T04:41:46.256Z,48.97
2018-04-06T04:42:46.247Z,48.97
2018-04-06T04:43:46.239Z,48.97
2018-04-06T04:44:46.229Z,48.79
2018-04-06T04:45:46.226Z,49.07
2018-04-06T04:46:46.233Z,48.88
2018-04-06T04:47:46.211Z,48.97
2018-04-06T04:48:46.201Z,48.88
2018-04-06T04:49:46.192Z,49.07
2018-04-06T04:50:46.183Z,49.07
2018-04-06T04:51:46.175Z,49.07
2018-04-06T04:52:46.174Z,49.17
2018-04-06T04:53:46.159Z,48.97
2018-04-06T04:54:46.158Z,48.88
2018-04-06T04:55:46.146Z,48.97
2018-04-06T04:56:46.138Z,49.07
2018-04-06T04:57:46.129Z,49.07
2018-04-06T04:58:46.124Z,48.97
2018-04-06T04:59:46.114Z,48.97
2018-04-06T05:00:46.105Z,49.17
2018-04-06T05:01:46.095Z,49.07
2018-04-06T05:02:46.089Z,48.97
2018-04-06T05:03:46.084Z,48.97
2018-04-06T05:04:46.077Z,48.97
2018-04-06T05:05:46.070Z,49.07
2018-04-06T05:06:46.060Z,48.88
2018-04-06T05:07:46.055Z,48.97
2018-04-06T05:08:46.043Z,48.88
2018-04-06T05:09:46.034Z,49.27
2018-04-06T05:10:46.027Z,49.17
2018-04-06T05:11:46.019Z,49.17
2018-04-06T05:12:46.011Z,49.27
2018-04-06T05:13:46.001Z,48.88
2018-04-06T05:14:45.997Z,49.07
2018-04-06T05:15:45.986Z,49.07
2018-04-06T05:16:45.989Z,49.07
2018-04-06T05:17:45.974Z,48.97
2018-04-06T05:18:45.964Z,48.88
2018-04-06T05:19:45.955Z,49.07
2018-04-06T05:20:45.949Z,49.07
2018-04-06T05:21:45.939Z,49.07
2018-04-06T05:22:45.936Z,49.07
2018-04-06T05:23:45.932Z,49.07
2018-04-06T05:24:45.915Z,49.17
2018-04-06T05:25:45.910Z,49.17
2018-04-06T05:26:45.901Z,49.17
2018-04-06T05:27:45.889Z,49.17
2018-04-06T05:28:45.890Z,49.17
2018-04-06T05:29:45.877Z,49.27
2018-04-06T05:30:45.867Z,49.07
2018-04-06T05:31:45.861Z,49.27
2018-04-06T05:32:45.853Z,48.79
2018-04-06T05:33:45.845Z,49.37
2018-04-06T05:34:45.845Z,48.69
2018-04-06T05:35:45.830Z,48.69
2018-04-06T05:36:45.819Z,48.97
2018-04-06T05:37:45.812Z,48.88
2018-04-06T05:38:45.834Z,48.59
2018-04-06T05:39:45.799Z,48.49
2018-04-06T05:40:45.793Z,48.69
2018-04-06T05:41:45.805Z,48.79
2018-04-06T05:42:45.770Z,48.69
2018-04-06T05:43:45.765Z,48.69
2018-04-06T05:44:45.757Z,48.49
2018-04-06T05:45:45.748Z,48.69
2018-04-06T05:46:45.742Z,48.88
2018-04-06T05:47:45.733Z,48.79
2018-04-06T05:48:45.728Z,48.40
2018-04-06T05:49:45.717Z,48.40
2018-04-06T05:50:45.714Z,48.59
2018-04-06T05:51:45.701Z,48.40
2018-04-06T05:52:45.697Z,48.49
2018-04-06T05:53:45.684Z,48.40
2018-04-06T05:54:45.681Z,48.49
2018-04-06T05:55:45.668Z,48.21
2018-04-06T05:56:45.659Z,48.40
2018-04-06T05:57:45.651Z,48.40
2018-04-06T05:58:45.651Z,48.30
2018-04-06T05:59:45.635Z,48.21
2018-04-06T06:00:45.628Z,48.30
2018-04-06T06:01:45.620Z,48.59
2018-04-06T06:02:45.612Z,48.40
2018-04-06T06:03:45.604Z,48.40
2018-04-06T06:04:45.596Z,48.21
2018-04-06T06:05:45.592Z,48.40
2018-04-06T06:06:45.579Z,48.40
2018-04-06T06:07:45.570Z,48.40
2018-04-06T06:08:45.561Z,48.30
2018-04-06T06:09:45.599Z,48.30
2018-04-06T06:10:45.549Z,48.59
2018-04-06T06:11:45.538Z,48.69
2018-04-06T06:12:45.536Z,48.30
2018-04-06T06:13:45.534Z,48.49
2018-04-06T06:14:45.518Z,48.59
2018-04-06T06:15:45.505Z,48.30
2018-04-06T06:16:45.502Z,48.11
2018-04-06T06:17:45.533Z,48.21
2018-04-06T06:18:45.485Z,48.21
2018-04-06T06:19:45.483Z,48.40
2018-04-06T06:20:45.470Z,48.59
2018-04-06T06:21:45.465Z,48.49
2018-04-06T06:22:45.454Z,48.30
2018-04-06T06:23:45.442Z,48.49
2018-04-06T06:24:45.438Z,48.49
2018-04-06T06:25:45.439Z,48.59
2018-04-06T06:26:45.420Z,48.40
2018-04-06T06:27:45.414Z,48.52
2018-04-06T06:28:45.404Z,48.49
2018-04-06T06:29:45.398Z,48.42
2018-04-06T06:30:45.386Z,48.40
2018-04-06T06:31:45.386Z,48.59
2018-04-06T06:32:45.381Z,48.61
2018-04-06T06:33:45.366Z,48.69
2018-04-06T06:34:45.357Z,48.69
2018-04-06T06:35:45.350Z,48.71
2018-04-06T06:36:45.343Z,48.23
2018-04-06T06:37:45.335Z,47.94
2018-04-06T06:38:45.327Z,47.94
2018-04-06T06:39:45.319Z,47.85
2018-04-06T06:40:45.311Z,47.85
2018-04-06T06:41:45.302Z,48.03
2018-04-06T06:42:45.297Z,48.13
2018-04-06T06:43:45.290Z,48.03
2018-04-06T06:44:45.279Z,48.03
2018-04-06T06:45:45.270Z,48.03
2018-04-06T06:46:45.264Z,48.23
2018-04-06T06:47:45.259Z,48.03
2018-04-06T06:48:45.247Z,48.03
2018-04-06T06:49:45.242Z,48.13
2018-04-06T06:50:45.240Z,47.85
2018-04-06T06:51:45.223Z,47.55
2018-04-06T06:52:45.216Z,47.75
2018-04-06T06:53:45.209Z,47.36
2018-04-06T06:54:45.206Z,47.65
2018-04-06T06:55:45.193Z,47.29
2018-04-06T06:56:45.189Z,47.67
2018-04-06T06:57:45.176Z,47.55
2018-04-06T06:58:45.173Z,47.58
2018-04-06T06:59:45.160Z,47.77
2018-04-06T07:00:45.154Z,47.77
2018-04-06T07:01:45.149Z,47.58
2018-04-06T07:02:45.144Z,47.29
2018-04-06T07:03:45.132Z,47.48
2018-04-06T07:04:45.126Z,47.29
2018-04-06T07:05:45.118Z,47.19
2018-04-06T07:06:45.108Z,47.38
2018-04-06T07:07:45.100Z,47.00
2018-04-06T07:08:45.097Z,47.19
2018-04-06T07:09:45.090Z,47.09
2018-04-06T07:10:45.106Z,47.00
2018-04-06T07:11:45.073Z,47.09
2018-04-06T07:12:45.066Z,46.51
2018-04-06T07:13:45.056Z,47.09
2018-04-06T07:14:45.048Z,46.71
2018-04-06T07:15:45.040Z,46.71
2018-04-06T07:16:45.032Z,46.81
2018-04-06T07:17:45.060Z,47.02
2018-04-06T07:18:45.056Z,46.64
2018-04-06T07:19:45.038Z,46.73
2018-04-06T07:20:45.024Z,46.34
2018-04-06T07:21:45.010Z,46.54
2018-04-06T07:22:44.989Z,46.73
2018-04-06T07:23:44.988Z,46.34
2018-04-06T07:24:44.973Z,46.73
2018-04-06T07:25:44.968Z,46.25
2018-04-06T07:26:44.959Z,46.34
2018-04-06T07:27:44.952Z,46.64
2018-04-06T07:28:44.943Z,46.54
2018-04-06T07:29:44.935Z,46.54
2018-04-06T07:30:44.928Z,46.64
2018-04-06T07:31:44.923Z,46.25
2018-04-06T07:32:44.914Z,45.86
2018-04-06T07:33:44.906Z,46.06
2018-04-06T07:34:44.902Z,46.27
2018-04-06T07:35:44.895Z,45.96
2018-04-06T07:36:44.884Z,45.69
2018-04-06T07:37:44.880Z,45.89
2018-04-06T07:38:44.867Z,46.08
2018-04-06T07:39:44.862Z,45.98
2018-04-06T07:40:44.856Z,45.98
2018-04-06T07:41:44.855Z,45.98
2018-04-06T07:42:44.844Z,45.98
2018-04-06T07:43:44.835Z,46.17
2018-04-06T07:44:44.826Z,46.08
2018-04-06T07:45:44.825Z,46.08
2018-04-06T07:46:44.814Z,46.17
2018-04-06T07:47:44.803Z,45.69
2018-04-06T07:48:44.797Z,45.69
2018-04-06T07:49:44.793Z,45.79
2018-04-06T07:50:44.796Z,45.79
2018-04-06T07:51:44.777Z,45.91
2018-04-06T07:52:44.768Z,45.69
2018-04-06T07:53:44.774Z,45.89
2018-04-06T07:54:44.760Z,45.79
2018-04-06T07:55:44.748Z,45.59
2018-04-06T07:56:44.740Z,45.31
2018-04-06T07:57:44.732Z,45.52
2018-04-06T07:58:44.726Z,45.14
2018-04-06T07:59:44.721Z,45.33
2018-04-06T08:00:44.712Z,45.04
2018-04-06T08:01:44.706Z,45.14
2018-04-06T08:02:44.697Z,45.14
2018-04-06T08:03:44.691Z,45.04
2018-04-06T08:04:44.686Z,45.14
2018-04-06T08:05:44.679Z,44.94
2018-04-06T08:06:44.670Z,44.94
2018-04-06T08:07:44.662Z,45.04
2018-04-06T08:08:44.658Z,45.04
2018-04-06T08:09:44.650Z,44.84
2018-04-06T08:10:44.641Z,45.14
2018-04-06T08:11:44.636Z,44.94
2018-04-06T08:12:44.628Z,44.94
2018-04-06T08:13:44.622Z,44.67
2018-04-06T08:14:44.616Z,44.75
2018-04-06T08:15:44.611Z,44.48
2018-04-06T08:16:44.637Z,44.67
2018-04-06T08:17:44.597Z,45.06
2018-04-06T08:18:44.590Z,44.87
2018-04-06T08:19:44.598Z,44.87
2018-04-06T08:20:44.574Z,45.16
2018-04-06T08:21:44.565Z,45.06
2018-04-06T08:22:44.562Z,44.57
2018-04-06T08:23:44.554Z,44.57
2018-04-06T08:24:44.548Z,44.29
2018-04-06T08:25:44.541Z,44.67
2018-04-06T08:26:44.532Z,44.67
2018-04-06T08:27:44.542Z,44.77
2018-04-06T08:28:44.520Z,44.77
2018-04-06T08:29:44.514Z,44.09
2018-04-06T08:30:44.513Z,44.38
2018-04-06T08:31:44.506Z,44.09
2018-04-06T08:32:44.494Z,44.38
2018-04-06T08:33:44.489Z,44.29
2018-04-06T08:34:44.482Z,43.61
2018-04-06T08:35:44.473Z,43.92
2018-04-06T08:36:44.469Z,43.92
2018-04-06T08:37:44.467Z,43.80
2018-04-06T08:38:44.456Z,44.02
2018-04-06T08:39:44.448Z,43.82
2018-04-06T08:40:44.450Z,43.73
2018-04-06T08:41:44.434Z,43.73
2018-04-06T08:42:44.429Z,43.73
2018-04-06T08:43:44.426Z,44.31
2018-04-06T08:44:44.421Z,43.82
2018-04-06T08:45:44.410Z,43.73
2018-04-06T08:46:44.408Z,43.82
2018-04-06T08:47:44.396Z,43.73
2018-04-06T08:48:44.384Z,43.92
2018-04-06T08:49:44.382Z,43.82
2018-04-06T08:50:44.376Z,43.92
2018-04-06T08:51:44.369Z,43.92
2018-04-06T08:52:44.373Z,44.02
2018-04-06T08:53:44.358Z,43.82
2018-04-06T08:54:44.411Z,43.82
2018-04-06T08:55:44.344Z,43.44
2018-04-06T08:56:44.342Z,43.44
2018-04-06T08:57:44.331Z,43.27
2018-04-06T08:58:44.329Z,43.55
2018-04-06T08:59:44.320Z,43.37
2018-04-06T09:00:44.314Z,43.37
2018-04-06T09:01:44.309Z,43.27
2018-04-06T09:02:44.300Z,43.27
2018-04-06T09:03:44.296Z,43.37
2018-04-06T09:04:44.297Z,43.46
2018-04-06T09:05:44.287Z,43.17
2018-04-06T09:06:44.286Z,43.17
2018-04-06T09:07:44.274Z,43.27
2018-04-06T09:08:44.286Z,43.37
2018-04-06T09:09:44.260Z,43.37
2018-04-06T09:10:44.256Z,43.46
2018-04-06T09:11:44.244Z,43.27
2018-04-06T09:12:44.322Z,43.37
2018-04-06T09:13:44.242Z,43.46
2018-04-06T09:14:44.241Z,43.46
2018-04-06T09:15:44.228Z,43.17
2018-04-06T09:16:44.214Z,43.07
2018-04-06T09:17:44.210Z,42.97
2018-04-06T09:18:44.205Z,42.97
2018-04-06T09:19:44.199Z,43.07
2018-04-06T09:20:44.190Z,43.17
2018-04-06T09:21:44.188Z,43.07
2018-04-06T09:22:44.180Z,43.07
2018-04-06T09:23:44.173Z,43.09
2018-04-06T09:24:44.166Z,43.07
2018-04-06T09:25:44.167Z,43.17
2018-04-06T09:26:44.156Z,42.97
2018-04-06T09:27:44.147Z,42.68
2018-04-06T09:28:44.144Z,42.80
2018-04-06T09:29:44.145Z,42.88
2018-04-06T09:30:44.142Z,42.80
2018-04-06T09:31:44.148Z,42.71
2018-04-06T09:32:44.121Z,42.88
2018-04-06T09:33:44.119Z,42.80
2018-04-06T09:34:44.107Z,42.71
2018-04-06T09:35:44.103Z,42.41
2018-04-06T09:36:44.095Z,42.61
2018-04-06T09:37:44.093Z,42.51
2018-04-06T09:38:44.085Z,42.51
2018-04-06T09:39:44.106Z,42.41
2018-04-06T09:40:44.074Z,42.41
2018-04-06T09:41:44.069Z,42.41
2018-04-06T09:42:44.062Z,42.61
2018-04-06T09:43:44.055Z,42.13
2018-04-06T09:44:44.046Z,42.51
2018-04-06T09:45:44.050Z,42.51
2018-04-06T09:46:44.051Z,42.51
2018-04-06T09:47:44.032Z,42.22
2018-04-06T09:48:44.026Z,42.13
2018-04-06T09:49:44.077Z,42.22
2018-04-06T09:50:44.033Z,42.41
2018-04-06T09:51:44.010Z,42.13
2018-04-06T09:52:44.003Z,42.32
2018-04-06T09:53:43.998Z,42.22
2018-04-06T09:54:43.993Z,42.32
2018-04-06T09:55:43.989Z,42.32
2018-04-06T09:56:43.982Z,42.22
2018-04-06T09:57:43.980Z,42.41
2018-04-06T09:58:43.970Z,42.32
2018-04-06T09:59:43.962Z,42.32
2018-04-06T10:00:43.956Z,42.03
2018-04-06T10:01:43.956Z,42.14
2018-04-06T10:02:43.952Z,42.03
2018-04-06T10:03:43.940Z,41.93
2018-04-06T10:04:43.935Z,42.03
2018-04-06T10:05:43.931Z,41.95
2018-04-06T10:06:43.926Z,42.14
2018-04-06T10:07:43.917Z,41.83
2018-04-06T10:08:43.912Z,41.76
2018-04-06T10:09:43.910Z,41.64
2018-04-06T10:10:43.901Z,41.83
2018-04-06T10:11:43.902Z,41.76
2018-04-06T10:12:43.892Z,41.25
2018-04-06T10:13:43.886Z,41.37
2018-04-06T10:14:43.881Z,41.56
2018-04-06T10:15:43.873Z,41.76
2018-04-06T10:16:43.866Z,41.56
2018-04-06T10:17:43.860Z,41.56
2018-04-06T10:18:43.858Z,41.66
2018-04-06T10:19:43.994Z,41.47
2018-04-06T10:20:43.853Z,41.37
2018-04-06T10:21:43.840Z,41.27
2018-04-06T10:22:43.835Z,41.47
2018-04-06T10:23:43.832Z,41.47
2018-04-06T10:24:43.828Z,41.47
2018-04-06T10:25:43.817Z,41.37
2018-04-06T10:26:43.818Z,41.27
2018-04-06T10:27:43.802Z,41.27
2018-04-06T10:28:43.806Z,41.17
2018-04-06T10:29:43.797Z,41.17
2018-04-06T10:30:43.799Z,41.27
2018-04-06T10:31:43.778Z,41.17
2018-04-06T10:32:43.789Z,41.27
2018-04-06T10:33:43.772Z,41.47
2018-04-06T10:34:43.767Z,41.27
2018-04-06T10:35:43.763Z,41.37
2018-04-06T10:36:43.770Z,41.17
2018-04-06T10:37:43.756Z,41.08
2018-04-06T10:38:43.747Z,41.00
2018-04-06T10:39:43.740Z,40.99
2018-04-06T10:40:43.742Z,41.17
2018-04-06T10:41:43.729Z,41.30
2018-04-06T10:42:43.725Z,41.08
2018-04-06T10:43:43.717Z,40.99
2018-04-06T10:44:43.712Z,41.00
2018-04-06T10:45:43.709Z,41.00
2018-04-06T10:46:43.711Z,41.00
2018-04-06T10:47:43.700Z,41.10
2018-04-06T10:48:43.694Z,40.71
2018-04-06T10:49:43.689Z,40.69
2018-04-06T10:50:43.682Z,40.71
2018-04-06T10:51:43.671Z,40.69
2018-04-06T10:52:43.669Z,41.00
2018-04-06T10:53:43.664Z,40.91
2018-04-06T10:54:43.665Z,40.52
2018-04-06T10:55:43.655Z,40.91
2018-04-06T10:56:43.648Z,40.71
2018-04-06T10:57:43.647Z,40.81
2018-04-06T10:58:43.637Z,40.81
2018-04-06T10:59:43.631Z,40.81
2018-04-06T11:00:43.626Z,40.81
2018-04-06T11:01:43.621Z,40.81
2018-04-06T11:02:43.616Z,40.61
2018-04-06T11:03:43.614Z,40.52
2018-04-06T11:04:43.610Z,40.52
2018-04-06T11:05:43.611Z,40.81
2018-04-06T11:06:43.609Z,40.71
2018-04-06T11:07:43.589Z,40.61
2018-04-06T11:08:43.582Z,40.81
2018-04-06T11:09:43.580Z,40.71
2018-04-06T11:10:43.570Z,40.61
2018-04-06T11:11:43.568Z,40.61
2018-04-06T11:12:43.566Z,40.33
2018-04-06T11:13:43.648Z,40.81
2018-04-06T11:14:43.553Z,40.61
2018-04-06T11:15:43.546Z,40.52
2018-04-06T11:16:43.539Z,40.42
2018-04-06T11:17:43.535Z,40.42
2018-04-06T11:18:43.530Z,40.71
2018-04-06T11:19:43.524Z,40.23
2018-04-06T11:20:43.522Z,40.33
2018-04-06T11:21:43.566Z,40.71
2018-04-06T11:22:43.509Z,40.33
2018-04-06T11:23:43.502Z,40.23
2018-04-06T11:24:43.499Z,40.59
2018-04-06T11:25:43.492Z,40.81
2018-04-06T11:26:43.483Z,40.61
2018-04-06T11:27:43.480Z,40.31
2018-04-06T11:28:43.475Z,40.50
2018-04-06T11:29:43.475Z,40.40
2018-04-06T11:30:43.464Z,40.50
2018-04-06T11:31:43.458Z,40.71
2018-04-06T11:32:43.454Z,40.69
2018-04-06T11:33:43.446Z,40.59
2018-04-06T11:34:43.440Z,40.59
2018-04-06T11:35:43.437Z,40.59
2018-04-06T11:36:43.433Z,40.59
2018-04-06T11:37:43.425Z,40.79
2018-04-06T11:38:43.429Z,40.69
2018-04-06T11:39:43.412Z,40.40
2018-04-06T11:40:43.414Z,41.17
2018-04-06T11:41:43.406Z,40.50
2018-04-06T11:42:43.399Z,40.40
2018-04-06T11:43:43.390Z,40.31
2018-04-06T11:44:43.385Z,40.40
2018-04-06T11:45:43.379Z,40.59
2018-04-06T11:46:43.379Z,40.40
2018-04-06T11:47:43.374Z,40.69
2018-04-06T11:48:43.363Z,40.69
2018-04-06T11:49:43.359Z,40.50
2018-04-06T11:50:43.356Z,40.59
2018-04-06T11:51:43.347Z,40.50
2018-04-06T11:52:43.341Z,40.50
2018-04-06T11:53:43.335Z,40.59
2018-04-06T11:54:43.333Z,40.59
2018-04-06T11:55:43.328Z,40.79
2018-04-06T11:56:43.323Z,40.59
2018-04-06T11:57:43.326Z,40.79
2018-04-06T11:58:43.311Z,40.59
2018-04-06T11:59:43.337Z,40.69
2018-04-06T12:00:43.298Z,40.77
2018-04-06T12:01:43.317Z,40.69
2018-04-06T12:02:43.291Z,40.79
2018-04-06T12:03:43.286Z,40.69
2018-04-06T12:04:43.312Z,40.58
2018-04-06T12:05:43.285Z,40.67
2018-04-06T12:06:43.268Z,40.69
2018-04-06T12:07:43.260Z,40.58
2018-04-06T12:08:43.255Z,40.58
2018-04-06T12:09:43.249Z,40.77
2018-04-06T12:10:43.243Z,40.58
2018-04-06T12:11:43.261Z,40.58
2018-04-06T12:12:43.236Z,40.38
2018-04-06T12:13:43.227Z,40.48
2018-04-06T12:14:43.227Z,40.58
2018-04-06T12:15:43.215Z,40.77
2018-04-06T12:16:43.210Z,40.67
2018-04-06T12:17:43.201Z,40.77
2018-04-06T12:18:43.195Z,40.67
2018-04-06T12:19:43.189Z,40.67
2018-04-06T12:20:43.185Z,40.58
2018-04-06T12:21:43.185Z,40.67
2018-04-06T12:22:43.225Z,40.96
2018-04-06T12:23:43.216Z,40.96
2018-04-06T12:24:43.161Z,41.06
2018-04-06T12:25:43.154Z,40.96
2018-04-06T12:26:43.153Z,41.16
2018-04-06T12:27:43.142Z,41.16
2018-04-06T12:28:43.143Z,40.96
2018-04-06T12:29:43.138Z,41.45
2018-04-06T12:30:43.132Z,41.35
2018-04-06T12:31:43.121Z,41.33
2018-04-06T12:32:43.124Z,41.45
2018-04-06T12:33:43.107Z,41.24
2018-04-06T12:34:43.106Z,41.14
2018-04-06T12:35:43.093Z,41.24
2018-04-06T12:36:43.094Z,41.35
2018-04-06T12:37:43.089Z,41.14
2018-04-06T12:38:43.083Z,41.24
2018-04-06T12:39:43.072Z,41.33
2018-04-06T12:40:43.069Z,41.24
2018-04-06T12:41:43.062Z,41.14
2018-04-06T12:42:43.050Z,41.52
2018-04-06T12:43:43.047Z,41.42
2018-04-06T12:44:43.042Z,41.42
2018-04-06T12:45:43.046Z,41.52
2018-04-06T12:46:43.035Z,41.24
2018-04-06T12:47:43.025Z,41.24
2018-04-06T12:48:43.020Z,41.72
2018-04-06T12:49:43.013Z,41.42
2018-04-06T12:50:43.007Z,41.42
2018-04-06T12:51:43.000Z,41.33
2018-04-06T12:52:42.995Z,41.91